Time;durP1;ratioP1;P1;durP2;ratioP2;P2;SDS_P1;SDS_P2;PMS_P1;PMS_P2;Temp;Humidity;BMP_temperature;BMP_pressure;BME280_temperature;BME280_humidity;BME280_pressure;Samples;Min_cycle;Max_cycle;Signal;HPM_P1;HPM_P2
2023/09/06 00:00:07;;;;;;;9.90;6.55;;;538.20;2406.40;;;;;;5035760;28;20123;-72
2023/09/06 00:02:33;;;;;;;11.50;7.22;;;538.20;2406.40;;;;;;5035093;28;20067;-72
2023/09/06 00:04:58;;;;;;;12.25;7.88;;;538.20;2406.40;;;;;;5035575;28;20025;-71
2023/09/06 00:07:24;;;;;;;12.63;7.68;;;538.20;2406.40;;;;;;5035433;28;20021;-73
2023/09/06 00:09:50;;;;;;;9.73;6.95;;;538.20;2406.40;;;;;;5035393;28;20013;-72
2023/09/06 00:12:17;;;;;;;11.32;8.57;;;538.20;2406.40;;;;;;5035683;28;20056;-73
2023/09/06 00:14:43;;;;;;;12.48;6.88;;;538.20;2406.40;;;;;;5035427;28;20489;-73
2023/09/06 00:17:09;;;;;;;13.25;8.23;;;538.10;2406.40;;;;;;5035452;28;20029;-72
2023/09/06 00:25:32;;;;;;;30.15;17.80;;;512.90;2380.80;;;;;;4958734;28;20483;-70
2023/09/06 00:28:00;;;;;;;27.35;14.85;;;512.90;2380.80;;;;;;4962317;28;20027;-70
2023/09/06 00:30:26;;;;;;;19.00;13.00;;;512.90;2380.80;;;;;;4967703;28;20033;-71
2023/09/06 00:32:53;;;;;;;23.80;13.23;;;512.90;2380.80;;;;;;4962982;28;20030;-70
2023/09/06 00:35:19;;;;;;;50.80;30.88;;;537.60;2406.40;;;;;;4947227;28;20035;-71
2023/09/06 00:37:46;;;;;;;46.53;28.83;;;512.90;2380.80;;;;;;4960942;28;20122;-71
2023/09/06 00:40:17;;;;;;;41.20;26.75;;;512.90;2380.80;;;;;;4967474;28;20027;-70
2023/09/06 00:42:59;;;;;;;37.42;25.05;;;537.60;2406.40;;;;;;4964012;28;20023;-72
2023/09/06 00:45:28;;;;;;;35.13;23.20;;;512.80;2380.80;;;;;;4964801;28;20098;-70
2023/09/06 00:47:55;;;;;;;33.20;22.88;;;512.90;2380.80;;;;;;4963143;28;20034;-70
2023/09/06 00:50:22;;;;;;;30.30;19.88;;;512.80;2380.80;;;;;;4961551;28;20027;-70
2023/09/06 00:52:50;;;;;;;21.00;15.52;;;512.90;2380.80;;;;;;4948852;28;20443;-70
2023/09/06 00:55:16;;;;;;;28.85;18.10;;;512.70;2380.80;;;;;;4962959;28;20031;-70
2023/09/06 00:57:42;;;;;;;27.52;18.23;;;512.50;2380.80;;;;;;4962340;28;20043;-71
2023/09/06 01:00:17;;;;;;;20.45;15.25;;;512.60;2380.80;;;;;;4964228;28;20057;-71
2023/09/06 01:02:44;;;;;;;25.02;16.80;;;512.60;2380.80;;;;;;4964406;28;20029;-70
2023/09/06 01:05:10;;;;;;;20.10;15.15;;;512.70;2380.80;;;;;;4954198;28;20092;-74
2023/09/06 01:07:38;;;;;;;25.23;15.95;;;512.70;2380.80;;;;;;4960894;28;20025;-70
2023/09/06 01:10:04;;;;;;;25.25;16.05;;;512.60;2380.80;;;;;;4965270;28;20031;-71
2023/09/06 01:12:30;;;;;;;21.58;14.98;;;512.50;2380.80;;;;;;4953365;28;20082;-71
2023/09/06 01:14:56;;;;;;;17.90;12.88;;;512.60;2380.80;;;;;;4953895;28;20434;-70
2023/09/06 01:17:26;;;;;;;18.23;11.40;;;512.60;2380.80;;;;;;4963486;28;20535;-70
2023/09/06 01:20:16;;;;;;;17.10;12.27;;;512.40;2380.80;;;;;;4953560;28;20073;-71
2023/09/06 01:22:51;;;;;;;19.23;11.30;;;512.40;2380.80;;;;;;4951309;28;20471;-70
2023/09/06 01:25:17;;;;;;;15.20;10.25;;;512.50;2380.80;;;;;;4963831;28;20167;-70
2023/09/06 01:27:45;;;;;;;13.20;9.88;;;512.60;2380.80;;;;;;4956218;28;20030;-71
2023/09/06 01:30:11;;;;;;;12.70;8.73;;;512.90;2380.80;;;;;;4961918;28;20487;-71
2023/09/06 01:32:37;;;;;;;11.80;7.88;;;512.50;2380.80;;;;;;4963628;28;20077;-70
2023/09/06 01:35:06;;;;;;;11.10;7.65;;;512.30;2380.80;;;;;;4961335;28;20024;-70
2023/09/06 01:37:32;;;;;;;15.02;9.05;;;512.40;2380.80;;;;;;4960923;28;20042;-70
2023/09/06 01:39:58;;;;;;;10.90;8.20;;;512.50;2380.80;;;;;;4944595;28;20026;-74
2023/09/06 01:42:24;;;;;;;16.67;8.48;;;512.30;2380.80;;;;;;4925833;28;20163;-75
2023/09/06 01:44:49;;;;;;;16.83;8.15;;;512.30;2380.80;;;;;;4957206;28;20055;-70
2023/09/06 01:47:15;;;;;;;10.63;7.88;;;512.30;2380.80;;;;;;4951608;28;20037;-70
2023/09/06 01:49:45;;;;;;;13.32;9.00;;;512.30;2380.80;;;;;;4958272;28;20027;-74
2023/09/06 01:52:10;;;;;;;10.73;7.63;;;512.20;2380.80;;;;;;4946001;28;20027;-70
2023/09/06 01:54:36;;;;;;;12.48;7.85;;;512.20;2380.80;;;;;;4956206;28;20032;-75
2023/09/06 01:57:02;;;;;;;12.63;8.38;;;487.30;2380.80;;;;;;4967445;28;20047;-70
2023/09/06 01:59:27;;;;;;;11.65;8.85;;;487.20;2380.80;;;;;;4959921;28;20028;-71
2023/09/06 02:01:54;;;;;;;10.00;7.57;;;487.20;2380.80;;;;;;4953275;28;20032;-70
2023/09/06 02:04:20;;;;;;;19.08;9.10;;;487.10;2380.80;;;;;;4957118;28;20023;-71
2023/09/06 02:06:46;;;;;;;11.05;8.38;;;487.20;2380.80;;;;;;4957380;28;20121;-70
2023/09/06 02:09:12;;;;;;;14.10;8.13;;;487.20;2380.80;;;;;;4958955;28;20055;-70
2023/09/06 02:11:37;;;;;;;12.48;8.35;;;487.30;2380.80;;;;;;4965927;28;20034;-74
2023/09/06 02:14:03;;;;;;;11.50;8.25;;;487.30;2380.80;;;;;;4956168;28;20070;-70
2023/09/06 02:16:30;;;;;;;16.88;10.38;;;512.10;2380.80;;;;;;4961835;28;20043;-75
2023/09/06 02:18:55;;;;;;;11.85;8.50;;;487.30;2380.80;;;;;;4957589;28;20110;-70
2023/09/06 02:21:21;;;;;;;10.75;8.27;;;487.20;2380.80;;;;;;4947597;28;20469;-71
2023/09/06 02:23:47;;;;;;;12.02;7.95;;;487.20;2380.80;;;;;;4960930;28;20063;-70
2023/09/06 02:26:12;;;;;;;12.35;8.00;;;487.30;2380.80;;;;;;4963693;28;20031;-70
2023/09/06 02:28:38;;;;;;;11.60;8.98;;;487.30;2380.80;;;;;;4942701;28;20031;-70
2023/09/06 02:31:04;;;;;;;20.92;9.50;;;487.30;2380.80;;;;;;4960528;28;20081;-71
2023/09/06 02:33:30;;;;;;;9.90;8.07;;;487.30;2380.80;;;;;;4951449;28;20031;-70
2023/09/06 02:35:55;;;;;;;12.20;8.43;;;487.30;2380.80;;;;;;4963677;28;20031;-70
2023/09/06 02:38:21;;;;;;;11.10;8.50;;;487.20;2380.80;;;;;;4951318;28;20036;-71
2023/09/06 02:40:47;;;;;;;10.55;8.27;;;487.00;2380.80;;;;;;4952496;28;20027;-70
2023/09/06 02:43:13;;;;;;;17.42;8.43;;;487.00;2380.80;;;;;;4961661;28;20103;-70
2023/09/06 02:45:39;;;;;;;10.88;8.40;;;486.70;2380.80;;;;;;4964717;28;20023;-71
2023/09/06 02:48:07;;;;;;;12.30;8.73;;;486.80;2380.80;;;;;;4947976;28;20016;-72
2023/09/06 02:50:36;;;;;;;14.80;9.32;;;486.70;2380.80;;;;;;4952831;28;20035;-71
2023/09/06 02:53:03;;;;;;;12.00;8.60;;;486.40;2380.80;;;;;;4961211;28;20039;-71
2023/09/06 02:55:33;;;;;;;11.68;9.18;;;486.60;2380.80;;;;;;4938091;28;20471;-73
2023/09/06 02:57:59;;;;;;;13.13;9.07;;;486.60;2380.80;;;;;;4949054;28;20117;-71
2023/09/06 03:00:25;;;;;;;11.73;8.85;;;486.40;2380.80;;;;;;4964171;28;20015;-70
2023/09/06 03:03:05;;;;;;;12.13;9.27;;;486.40;2380.80;;;;;;4953272;28;20027;-70
2023/09/06 03:05:31;;;;;;;20.17;9.98;;;486.50;2380.80;;;;;;4938263;28;20047;-73
2023/09/06 03:07:57;;;;;;;12.10;9.40;;;;;;;;;;4937894;28;20038;-70
2023/09/06 03:10:23;;;;;;;14.40;9.90;;;;;;;;;;4933791;28;20027;-72
2023/09/06 03:12:56;;;;;;;13.80;8.48;;;461.60;2380.80;;;;;;4962367;28;20035;-70
2023/09/06 03:15:23;;;;;;;16.23;9.30;;;461.30;2380.80;;;;;;4952736;28;20122;-71
2023/09/06 03:17:53;;;;;;;16.85;9.88;;;461.40;2380.80;;;;;;4961754;28;20042;-70
2023/09/06 03:20:31;;;;;;;12.32;8.85;;;461.10;2380.80;;;;;;4959721;28;20031;-71
2023/09/06 03:22:58;;;;;;;12.40;9.10;;;461.20;2380.80;;;;;;4934150;29;20483;-71
2023/09/06 03:25:26;;;;;;;16.02;9.73;;;460.90;2380.80;;;;;;4925183;28;20048;-72
2023/09/06 03:27:59;;;;;;;17.95;9.23;;;461.20;2380.80;;;;;;4957283;28;20027;-70
2023/09/06 03:30:27;;;;;;;20.95;10.45;;;461.10;2380.80;;;;;;4948840;28;20062;-70
2023/09/06 03:32:54;;;;;;;14.32;9.00;;;461.00;2380.80;;;;;;4949269;28;20102;-71
2023/09/06 03:35:22;;;;;;;16.17;10.93;;;460.90;2380.80;;;;;;4952605;28;20027;-70
2023/09/06 03:37:49;;;;;;;15.65;9.77;;;460.90;2380.80;;;;;;4960880;28;20030;-70
2023/09/06 03:40:25;;;;;;;15.75;9.73;;;460.90;2380.80;;;;;;4946858;28;20016;-70
2023/09/06 03:42:54;;;;;;;19.50;9.68;;;461.00;2380.80;;;;;;4952312;28;20027;-70
2023/09/06 03:45:21;;;;;;;13.27;10.15;;;460.90;2380.80;;;;;;4958910;28;20033;-71
2023/09/06 03:47:54;;;;;;;17.48;9.98;;;461.00;2380.80;;;;;;4956094;28;20042;-70
2023/09/06 03:50:21;;;;;;;12.23;9.30;;;461.10;2380.80;;;;;;4944206;28;20476;-73
2023/09/06 03:52:48;;;;;;;20.17;11.48;;;461.10;2380.80;;;;;;4958346;28;20055;-71
2023/09/06 03:55:16;;;;;;;15.77;9.60;;;460.90;2380.80;;;;;;4962949;28;20397;-71
2023/09/06 03:57:42;;;;;;;13.60;9.73;;;460.90;2380.80;;;;;;4947544;28;20417;-70
2023/09/06 04:03:10;;;;;;;14.52;9.85;;;461.00;2380.80;;;;;;4895734;29;20485;-70
2023/09/06 04:05:36;;;;;;;13.13;10.27;;;461.00;2380.80;;;;;;4899759;29;20097;-70
2023/09/06 04:08:09;;;;;;;16.75;10.20;;;461.10;2380.80;;;;;;4890332;29;20071;-71
2023/09/06 04:10:38;;;;;;;14.48;10.07;;;461.20;2380.80;;;;;;4904279;29;20020;-71
2023/09/06 04:13:09;;;;;;;14.27;10.75;;;461.20;2380.80;;;;;;4904772;29;20047;-70
2023/09/06 04:15:35;;;;;;;18.38;10.77;;;461.20;2380.80;;;;;;4884754;29;20099;-70
2023/09/06 04:18:11;;;;;;;14.45;9.93;;;461.40;2380.80;;;;;;4902819;29;20040;-70
2023/09/06 04:20:39;;;;;;;14.18;9.48;;;461.40;2380.80;;;;;;4904485;29;20029;-70
2023/09/06 04:23:06;;;;;;;14.50;9.65;;;461.50;2380.80;;;;;;4910576;29;20044;-70
2023/09/06 04:25:43;;;;;;;15.82;10.73;;;461.40;2380.80;;;;;;4904748;29;20527;-71
2023/09/06 04:28:10;;;;;;;16.52;10.48;;;461.50;2380.80;;;;;;4905411;29;20111;-71
2023/09/06 04:30:37;;;;;;;17.63;11.00;;;461.40;2380.80;;;;;;4907455;29;20023;-70
2023/09/06 04:33:08;;;;;;;14.85;10.00;;;461.50;2380.80;;;;;;4896223;29;20044;-70
2023/09/06 04:35:39;;;;;;;14.82;10.20;;;461.60;2380.80;;;;;;4892127;29;20027;-71
2023/09/06 04:38:05;;;;;;;14.38;10.95;;;461.70;2380.80;;;;;;4894511;29;20044;-72
2023/09/06 04:40:31;;;;;;;17.73;10.30;;;461.70;2380.80;;;;;;4953731;29;20083;-70
2023/09/06 04:42:57;;;;;;;16.35;11.07;;;486.40;2380.80;;;;;;4944100;29;20035;-70
2023/09/06 04:45:22;;;;;;;14.32;10.50;;;486.40;2380.80;;;;;;4952615;29;20027;-70
2023/09/06 04:47:49;;;;;;;17.17;10.95;;;486.40;2380.80;;;;;;4948772;29;20039;-70
2023/09/06 04:50:15;;;;;;;19.80;12.65;;;461.70;2380.80;;;;;;4951241;29;20019;-70
2023/09/06 04:52:45;;;;;;;16.05;10.20;;;461.70;2380.80;;;;;;4950485;29;20085;-72
2023/09/06 04:55:15;;;;;;;15.88;9.95;;;486.40;2380.80;;;;;;4945431;29;20031;-71
2023/09/06 04:57:41;;;;;;;16.75;11.50;;;486.50;2380.80;;;;;;4942039;29;20043;-71
2023/09/06 05:00:30;;;;;;;18.80;11.23;;;486.50;2380.80;;;;;;4948576;29;20016;-71
2023/09/06 05:02:57;;;;;;;19.17;11.07;;;486.50;2380.80;;;;;;4941699;29;20036;-70
2023/09/06 05:05:24;;;;;;;18.85;11.48;;;486.50;2380.80;;;;;;4942712;29;20043;-70
2023/09/06 05:07:50;;;;;;;16.10;10.75;;;486.70;2380.80;;;;;;4943658;29;20041;-71
2023/09/06 05:10:17;;;;;;;18.98;12.25;;;486.70;2380.80;;;;;;4950448;29;20023;-74
2023/09/06 05:12:43;;;;;;;27.83;12.63;;;486.80;2380.80;;;;;;4946937;29;20093;-75
2023/09/06 05:15:12;;;;;;;17.15;11.50;;;486.80;2380.80;;;;;;4948842;29;20107;-76
2023/09/06 05:17:38;;;;;;;14.40;11.13;;;486.90;2380.80;;;;;;4944427;29;20475;-76
2023/09/06 05:20:31;;;;;;;15.15;10.48;;;487.10;2380.80;;;;;;4944184;29;20040;-76
2023/09/06 05:22:58;;;;;;;15.32;10.38;;;487.00;2380.80;;;;;;4943547;29;20027;-76
2023/09/06 05:25:24;;;;;;;17.20;12.25;;;487.10;2380.80;;;;;;4947681;29;20142;-77
2023/09/06 05:27:53;;;;;;;23.77;15.27;;;487.20;2380.80;;;;;;4947070;29;20128;-77
2023/09/06 05:30:19;;;;;;;15.35;11.65;;;487.20;2380.80;;;;;;4942566;28;20036;-76
2023/09/06 05:32:45;;;;;;;17.17;11.20;;;487.30;2380.80;;;;;;4949852;29;20098;-77
2023/09/06 05:35:11;;;;;;;17.38;12.40;;;512.00;2380.80;;;;;;4939731;29;20104;-76
2023/09/06 05:37:38;;;;;;;21.25;11.60;;;512.00;2380.80;;;;;;4947143;29;20036;-76
2023/09/06 05:40:05;;;;;;;17.77;12.43;;;512.10;2380.80;;;;;;4939418;29;20023;-77
2023/09/06 05:42:31;;;;;;;15.13;10.98;;;512.20;2380.80;;;;;;4940294;29;20066;-76
2023/09/06 05:44:56;;;;;;;19.85;11.73;;;512.30;2380.80;;;;;;4923799;29;20024;-74
2023/09/06 05:47:22;;;;;;;19.05;12.35;;;512.50;2380.80;;;;;;4947636;29;20487;-74
2023/09/06 05:49:51;;;;;;;16.60;11.18;;;512.50;2380.80;;;;;;4945642;29;20079;-74
2023/09/06 05:52:17;;;;;;;17.17;11.68;;;512.70;2380.80;;;;;;4949637;29;20515;-74
2023/09/06 05:54:44;;;;;;;18.15;10.73;;;512.80;2380.80;;;;;;4946967;29;20039;-73
2023/09/06 05:57:09;;;;;;;18.13;11.40;;;512.90;2380.80;;;;;;4948544;28;20038;-74
2023/09/06 05:59:35;;;;;;;22.98;12.40;;;;;;;;;;4939688;29;20023;-74
2023/09/06 06:02:02;;;;;;;15.88;11.90;;;537.90;2406.40;;;;;;4947717;29;20098;-74
2023/09/06 06:04:28;;;;;;;14.68;10.95;;;537.90;2406.40;;;;;;4942735;28;20042;-73
2023/09/06 06:06:54;;;;;;;22.92;12.07;;;537.90;2406.40;;;;;;4944179;29;20020;-73
2023/09/06 06:09:21;;;;;;;15.30;11.15;;;537.80;2406.40;;;;;;4942191;29;20039;-73
2023/09/06 06:11:47;;;;;;;23.17;11.95;;;538.00;2406.40;;;;;;4954028;29;20524;-74
2023/09/06 06:14:13;;;;;;;13.32;11.10;;;538.10;2406.40;;;;;;4940936;29;20047;-75
2023/09/06 06:16:39;;;;;;;18.40;12.40;;;;;;;;;;4950196;29;20032;-73
2023/09/06 06:19:05;;;;;;;16.15;11.00;;;538.50;2406.40;;;;;;4948427;29;20038;-73
2023/09/06 06:21:31;;;;;;;14.73;10.70;;;538.40;2406.40;;;;;;4944104;29;20059;-73
2023/09/06 06:23:57;;;;;;;14.75;10.68;;;538.50;2406.40;;;;;;4949168;29;20134;-72
2023/09/06 06:26:23;;;;;;;19.02;11.32;;;563.20;2432.00;;;;;;4947054;29;20102;-73
2023/09/06 06:28:49;;;;;;;14.35;11.35;;;563.30;2432.00;;;;;;4940091;29;20425;-72
2023/09/06 06:31:15;;;;;;;12.55;10.00;;;563.50;2432.00;;;;;;4928802;29;20034;-72
2023/09/06 06:33:43;;;;;;;12.68;10.55;;;563.50;2432.00;;;;;;4944358;29;20016;-73
2023/09/06 06:36:09;;;;;;;15.63;11.23;;;563.60;2432.00;;;;;;4924347;29;20043;-72
2023/09/06 06:38:34;;;;;;;15.90;10.25;;;563.70;2432.00;;;;;;4950270;29;20027;-73
2023/09/06 06:41:00;;;;;;;12.18;9.15;;;563.80;2432.00;;;;;;4939107;29;20151;-73
2023/09/06 06:43:27;;;;;;;12.73;10.20;;;564.10;2432.00;;;;;;4943180;29;20158;-72
2023/09/06 06:45:56;;;;;;;15.45;8.63;;;564.10;2432.00;;;;;;4950665;29;20110;-73
2023/09/06 06:48:22;;;;;;;11.10;7.78;;;564.10;2432.00;;;;;;4941522;29;20039;-72
2023/09/06 06:50:49;;;;;;;11.43;7.22;;;588.80;2432.00;;;;;;4950486;29;20053;-72
2023/09/06 06:53:14;;;;;;;19.27;7.75;;;588.80;2432.00;;;;;;4940637;29;20031;-72
2023/09/06 06:55:40;;;;;;;13.70;7.28;;;589.00;2432.00;;;;;;4945550;29;20362;-72
2023/09/06 06:58:07;;;;;;;10.95;6.75;;;589.20;2432.00;;;;;;4942539;29;20059;-72
2023/09/06 07:00:36;;;;;;;12.07;6.50;;;589.40;2432.00;;;;;;4947357;29;20019;-73
2023/09/06 07:03:04;;;;;;;12.77;6.30;;;589.50;2432.00;;;;;;4947290;29;20441;-73
2023/09/06 07:05:29;;;;;;;9.38;6.72;;;589.70;2432.00;;;;;;4941717;29;20055;-72
2023/09/06 07:07:55;;;;;;;13.52;6.18;;;614.50;2432.00;;;;;;4938369;29;20118;-73
2023/09/06 07:10:25;;;;;;;12.65;5.82;;;614.80;2432.00;;;;;;4942132;29;20027;-72
2023/09/06 07:12:50;;;;;;;8.10;5.88;;;614.90;2432.00;;;;;;4935945;29;20032;-73
2023/09/06 07:15:16;;;;;;;7.60;5.95;;;615.20;2432.00;;;;;;4946880;29;20039;-72
2023/09/06 07:17:43;;;;;;;10.63;6.32;;;615.30;2432.00;;;;;;4946899;29;20086;-73
2023/09/06 07:20:09;;;;;;;12.80;6.45;;;640.20;2432.00;;;;;;4948306;29;20027;-73
2023/09/06 07:22:34;;;;;;;8.02;5.90;;;640.40;2432.00;;;;;;4954500;29;20078;-73
2023/09/06 07:25:00;;;;;;;14.25;7.35;;;640.50;2432.00;;;;;;4944656;29;20044;-73
2023/09/06 07:27:26;;;;;;;10.60;5.80;;;640.70;2432.00;;;;;;4949549;29;20539;-73
2023/09/06 07:29:52;;;;;;;16.02;5.55;;;665.60;2432.00;;;;;;4941102;29;20428;-73
2023/09/06 07:32:17;;;;;;;14.30;5.82;;;640.90;2432.00;;;;;;4938057;29;20039;-73
2023/09/06 07:34:44;;;;;;;8.52;4.75;;;;;;;;;;4941051;29;20078;-73
2023/09/06 07:37:10;;;;;;;9.38;4.90;;;665.80;2432.00;;;;;;4945094;29;20127;-73
2023/09/06 07:39:37;;;;;;;7.95;4.65;;;;;;;;;;4942400;29;20095;-73
2023/09/06 07:42:04;;;;;;;6.97;4.97;;;666.10;2329.60;;;;;;4943554;29;20043;-72
2023/09/06 07:44:32;;;;;;;12.35;4.82;;;666.20;2355.20;;;;;;4947385;29;20094;-73
2023/09/06 07:47:01;;;;;;;6.35;4.35;;;666.20;2329.60;;;;;;4946421;29;20421;-73
2023/09/06 07:49:31;;;;;;;6.53;4.30;;;666.30;2201.60;;;;;;4937442;29;20027;-73
2023/09/06 07:51:57;;;;;;;6.97;4.43;;;666.50;2150.40;;;;;;4954361;28;20028;-73
2023/09/06 07:54:23;;;;;;;6.60;4.55;;;691.20;2176.00;;;;;;4947820;29;20046;-73
2023/09/06 07:56:50;;;;;;;7.65;4.35;;;;;;;;;;4942539;29;20027;-73
2023/09/06 07:59:17;;;;;;;6.60;4.28;;;;;;;;;;4941959;29;20030;-74
2023/09/06 08:01:43;;;;;;;7.13;4.35;;;;;;;;;;4957633;29;20459;-73
2023/09/06 08:04:10;;;;;;;5.72;4.20;;;;;;;;;;4952577;29;20032;-73
2023/09/06 08:06:36;;;;;;;5.25;4.20;;;;;;;;;;4952172;29;20020;-73
2023/09/06 08:09:02;;;;;;;7.93;3.83;;;;;;;;;;4952305;29;20028;-73
2023/09/06 08:11:28;;;;;;;8.38;4.25;;;;;;;;;;4952685;29;20026;-73
2023/09/06 08:13:54;;;;;;;13.13;4.90;;;716.80;1894.40;;;;;;4952409;29;20031;-73
2023/09/06 08:16:19;;;;;;;5.18;3.85;;;691.90;1868.80;;;;;;4947553;29;20387;-73
2023/09/06 08:18:46;;;;;;;4.88;3.55;;;692.10;1945.60;;;;;;4944836;29;20023;-73
2023/09/06 08:21:12;;;;;;;7.85;4.10;;;716.80;1894.40;;;;;;4933180;29;20023;-74
2023/09/06 08:23:37;;;;;;;7.97;3.70;;;717.00;1792.00;;;;;;4939418;29;20055;-73
2023/09/06 08:26:03;;;;;;;5.72;3.65;;;717.10;1843.20;;;;;;4949527;29;20082;-73
2023/09/06 08:28:29;;;;;;;8.15;4.32;;;717.50;1766.40;;;;;;4953081;29;20106;-73
2023/09/06 08:30:55;;;;;;;7.78;3.78;;;742.40;1792.00;;;;;;4953209;29;20416;-73
2023/09/06 08:33:21;;;;;;;7.75;3.95;;;742.40;1689.60;;;;;;4955606;29;20027;-73
2023/09/06 08:35:46;;;;;;;8.35;3.42;;;717.70;1664.00;;;;;;4943079;29;20070;-73
2023/09/06 08:38:12;;;;;;;6.88;3.33;;;742.40;1664.00;;;;;;4949489;29;20444;-73
2023/09/06 08:40:38;;;;;;;4.95;3.55;;;742.80;1612.80;;;;;;4940424;29;20460;-73
2023/09/06 08:43:04;;;;;;;5.35;3.17;;;742.80;1612.80;;;;;;4949598;29;20459;-73
2023/09/06 08:45:30;;;;;;;5.68;3.45;;;742.90;1612.80;;;;;;4951982;29;20023;-73
2023/09/06 08:47:56;;;;;;;14.00;5.53;;;743.10;1587.20;;;;;;4949373;29;20027;-73
2023/09/06 08:50:23;;;;;;;5.35;3.60;;;742.90;1664.00;;;;;;4951177;29;20034;-73
2023/09/06 08:52:50;;;;;;;5.90;3.80;;;768.00;1587.20;;;;;;4956111;29;20027;-73
2023/09/06 08:55:17;;;;;;;4.93;3.40;;;768.40;1561.60;;;;;;4934704;29;20454;-73
2023/09/06 08:57:46;;;;;;;6.00;3.67;;;743.10;1536.00;;;;;;4950423;29;20070;-73
2023/09/06 09:00:13;;;;;;;10.60;4.22;;;743.00;1561.60;;;;;;4939513;29;20027;-73
2023/09/06 09:02:40;;;;;;;9.77;4.03;;;768.10;1587.20;;;;;;4929912;29;20027;-73
2023/09/06 09:05:07;;;;;;;9.48;3.55;;;743.30;1587.20;;;;;;4953285;29;20024;-72
2023/09/06 09:07:33;;;;;;;5.82;4.30;;;768.30;1561.60;;;;;;4951214;29;20083;-73
2023/09/06 09:10:02;;;;;;;5.43;3.70;;;768.30;1536.00;;;;;;4946153;29;20027;-73
2023/09/06 09:12:30;;;;;;;6.05;3.50;;;768.20;1536.00;;;;;;4945666;29;20038;-74
2023/09/06 09:14:57;;;;;;;7.03;3.80;;;768.00;1536.00;;;;;;4952405;29;20384;-71
2023/09/06 09:17:24;;;;;;;8.65;3.88;;;743.30;1536.00;;;;;;4948564;29;20039;-72
2023/09/06 09:19:51;;;;;;;8.38;4.15;;;768.40;1510.40;;;;;;4946884;29;20480;-73
2023/09/06 09:22:30;;;;;;;5.57;4.00;;;768.90;1484.80;;;;;;4952783;29;20506;-73
2023/09/06 09:25:17;;;;;;;6.47;3.60;;;793.70;1510.40;;;;;;4932044;29;20138;-73
2023/09/06 09:27:51;;;;;;;5.72;3.97;;;768.90;1484.80;;;;;;4941491;29;20023;-73
2023/09/06 09:30:18;;;;;;;5.18;3.85;;;793.70;1510.40;;;;;;4944658;29;20032;-73
2023/09/06 09:32:44;;;;;;;7.80;3.60;;;793.70;1510.40;;;;;;4943987;29;20074;-72
2023/09/06 09:35:11;;;;;;;9.65;3.50;;;793.70;1510.40;;;;;;4942848;29;20380;-73
2023/09/06 09:37:51;;;;;;;11.68;4.85;;;793.90;1484.80;;;;;;4951681;29;20047;-73
2023/09/06 09:40:21;;;;;;;6.10;3.80;;;794.30;1459.20;;;;;;4941248;29;20024;-73
2023/09/06 09:42:54;;;;;;;9.10;4.25;;;819.30;1356.80;;;;;;4947571;29;20039;-73
2023/09/06 09:45:22;;;;;;;7.10;4.00;;;819.50;1408.00;;;;;;4944897;29;20019;-73
2023/09/06 09:47:47;;;;;;;12.52;4.25;;;819.20;1459.20;;;;;;4933161;29;20026;-73
2023/09/06 09:50:14;;;;;;;5.43;3.92;;;794.50;1433.60;;;;;;4943025;29;20095;-73
2023/09/06 09:52:44;;;;;;;7.93;3.97;;;794.20;1459.20;;;;;;4956004;29;20031;-73
2023/09/06 09:55:15;;;;;;;5.15;3.72;;;819.30;1382.40;;;;;;4946576;28;20027;-72
2023/09/06 09:57:48;;;;;;;9.00;4.15;;;819.70;1382.40;;;;;;4933284;29;20519;-73
2023/09/06 10:00:14;;;;;;;9.93;4.70;;;819.60;1433.60;;;;;;4948073;29;20047;-74
2023/09/06 10:02:45;;;;;;;7.20;4.10;;;794.50;1433.60;;;;;;4937324;29;20506;-73
2023/09/06 10:05:16;;;;;;;5.00;3.35;;;819.60;1382.40;;;;;;4944533;29;20023;-73
2023/09/06 10:07:42;;;;;;;6.93;3.70;;;819.60;1356.80;;;;;;4942646;29;20024;-73
2023/09/06 10:10:12;;;;;;;7.22;3.28;;;819.40;1408.00;;;;;;4931915;29;20380;-72
2023/09/06 10:12:45;;;;;;;4.97;3.55;;;819.50;1382.40;;;;;;4937527;29;20123;-73
2023/09/06 10:15:15;;;;;;;6.30;3.17;;;819.30;1382.40;;;;;;4943535;29;20456;-73
2023/09/06 10:17:47;;;;;;;7.82;4.28;;;819.70;1408.00;;;;;;4945674;29;20042;-73
2023/09/06 10:20:22;;;;;;;5.95;3.70;;;819.80;1356.80;;;;;;4948314;29;20027;-73
2023/09/06 10:22:49;;;;;;;8.82;4.68;;;820.00;1331.20;;;;;;4928179;28;20368;-73
2023/09/06 10:25:16;;;;;;;7.13;3.65;;;819.80;1356.80;;;;;;4941672;29;20079;-73
2023/09/06 10:27:49;;;;;;;5.35;4.00;;;819.30;1408.00;;;;;;4947458;29;20023;-73
2023/09/06 10:30:18;;;;;;;9.13;4.30;;;819.80;1331.20;;;;;;4943235;29;20543;-72
2023/09/06 10:32:48;;;;;;;8.20;3.70;;;820.10;1356.80;;;;;;4946164;29;20588;-74
2023/09/06 10:35:22;;;;;;;7.57;4.38;;;844.90;1382.40;;;;;;4941831;29;20031;-73
2023/09/06 10:38:06;;;;;;;5.50;4.00;;;844.90;1356.80;;;;;;4950433;29;20040;-74
2023/09/06 10:41:06;;;;;;;8.68;3.63;;;819.60;1356.80;;;;;;4941090;29;20016;-75
2023/09/06 10:43:57;;;;;;;7.30;4.00;;;845.40;1280.00;;;;;;4946777;29;20472;-74
2023/09/06 10:46:27;;;;;;;6.20;3.67;;;845.30;1280.00;;;;;;4943400;29;20476;-73
2023/09/06 10:49:14;;;;;;;9.38;3.67;;;845.30;1305.60;;;;;;4949647;29;20038;-72
2023/09/06 10:52:08;;;;;;;6.07;3.15;;;845.70;1254.40;;;;;;4941081;29;20102;-71
2023/09/06 10:54:37;;;;;;;5.07;3.53;;;870.70;1203.20;;;;;;4947971;29;20036;-73
2023/09/06 10:57:09;;;;;;;5.10;3.30;;;870.80;1228.80;;;;;;4943431;29;20592;-73
2023/09/06 10:59:45;;;;;;;6.53;3.67;;;870.60;1228.80;;;;;;4945534;29;20030;-75
2023/09/06 11:02:21;;;;;;;6.20;3.90;;;870.60;1280.00;;;;;;4946739;29;20439;-75
2023/09/06 11:04:47;;;;;;;6.78;3.80;;;845.70;1254.40;;;;;;4938821;29;20059;-72
2023/09/06 11:07:13;;;;;;;8.10;3.40;;;845.50;1228.80;;;;;;4937356;29;20077;-72
2023/09/06 11:09:49;;;;;;;5.25;3.47;;;845.40;1228.80;;;;;;4949100;29;20015;-73
2023/09/06 11:12:15;;;;;;;12.75;10.75;;;845.30;1228.80;;;;;;4942759;29;20038;-73
2023/09/06 11:14:43;;;;;;;6.88;3.22;;;870.60;1203.20;;;;;;4946638;29;20020;-72
2023/09/06 11:17:22;;;;;;;6.65;3.40;;;870.90;1228.80;;;;;;4944774;29;20484;-73
2023/09/06 11:19:47;;;;;;;12.88;4.05;;;870.60;1177.60;;;;;;4943499;29;20400;-72
2023/09/06 11:22:13;;;;;;;7.95;4.07;;;845.70;1228.80;;;;;;4946008;29;20023;-73
2023/09/06 11:24:39;;;;;;;9.25;3.80;;;870.60;1177.60;;;;;;4942561;29;20535;-71
2023/09/06 11:27:33;;;;;;;7.32;3.83;;;870.50;1254.40;;;;;;4942213;29;20023;-71
2023/09/06 11:30:10;;;;;;;5.88;3.53;;;870.90;1177.60;;;;;;4952574;29;20058;-72
2023/09/06 11:32:37;;;;;;;3.97;2.97;;;870.80;1152.00;;;;;;4939852;29;20255;-71
2023/09/06 11:35:08;;;;;;;5.47;3.85;;;871.00;1126.40;;;;;;4951915;29;20216;-72
2023/09/06 11:37:37;;;;;;;6.18;3.42;;;896.10;1100.80;;;;;;4951286;29;20047;-73
2023/09/06 11:40:12;;;;;;;5.25;4.38;;;871.30;1126.40;;;;;;4949847;29;20027;-72
2023/09/06 11:42:40;;;;;;;8.30;3.80;;;870.80;1152.00;;;;;;4951773;29;20154;-74
2023/09/06 11:45:07;;;;;;;7.28;3.83;;;871.10;1100.80;;;;;;4956316;29;20380;-72
2023/09/06 11:47:32;;;;;;;4.43;3.55;;;871.00;1126.40;;;;;;4949956;29;20156;-72
2023/09/06 11:50:02;;;;;;;8.52;4.03;;;871.00;1126.40;;;;;;4947909;29;20024;-72
2023/09/06 11:52:30;;;;;;;6.30;3.78;;;870.90;1126.40;;;;;;4955331;29;20027;-72
2023/09/06 11:54:58;;;;;;;7.93;4.03;;;845.50;1203.20;;;;;;4939651;29;20075;-72
2023/09/06 11:57:26;;;;;;;12.50;3.83;;;820.10;1228.80;;;;;;4951026;29;20039;-72
2023/09/06 11:59:58;;;;;;;10.43;4.07;;;794.50;1280.00;;;;;;4944173;29;20030;-72
2023/09/06 12:02:27;;;;;;;5.80;4.38;;;819.20;1280.00;;;;;;4953413;29;20090;-74
2023/09/06 12:05:01;;;;;;;8.63;4.22;;;819.80;1254.40;;;;;;4951410;29;20039;-72
2023/09/06 12:07:35;;;;;;;6.22;4.47;;;819.60;1254.40;;;;;;4933809;29;20039;-73
2023/09/06 12:10:06;;;;;;;9.20;4.43;;;794.20;1305.60;;;;;;4947433;29;20027;-73
2023/09/06 12:12:43;;;;;;;5.63;3.83;;;819.30;1305.60;;;;;;4948100;29;20038;-73
2023/09/06 12:15:19;;;;;;;7.10;4.03;;;819.90;1280.00;;;;;;4942922;29;20028;-72
2023/09/06 12:17:48;;;;;;;7.80;3.85;;;845.10;1280.00;;;;;;4953051;29;20500;-73
2023/09/06 12:20:23;;;;;;;8.27;3.92;;;845.40;1177.60;;;;;;4946140;29;20032;-72
2023/09/06 12:22:51;;;;;;;5.28;3.33;;;845.50;1203.20;;;;;;4957839;29;20143;-72
2023/09/06 12:25:21;;;;;;;5.97;4.13;;;845.50;1228.80;;;;;;4951891;29;20050;-73
2023/09/06 12:27:47;;;;;;;4.50;3.47;;;870.40;1228.80;;;;;;4952471;29;20031;-73